Latest Weather Observations for Latrobe Valley

IDV60801

Issued at 7:02 am EST Wednesday 24 August 2016 (issued every 30 minutes, with the page automatically refreshed every 10 minutes)

About weather observations | Map of weather stations | Latest weather observations for VIC | Other Formats
Station Details ID: 085280 Name: LATROBE VALLEY AIRPORT Lat: -38.21 Lon: 146.47 Height: 55.7 m
Data from the previous 72 hours. | See also: Recent months at Latrobe Valley
Date/Time
EST
Temp
°C
App
Temp
°C
Dew
Point
°C
Rel
Hum
%
Delta-T
°C
Wind Press
QNH
hPa
Press
MSL
hPa
Rain since
9am
mm
Dir  Spd
km/h
Gust
km/h
Spd
kts
Gust
kts
24/07:00am 0.9 -2.1 0.5 97 0.1 WSW 6 7 3 4 1016.8 1016.9 0.4
24/06:30am 2.4 -0.4 2.0 97 0.2 SW 6 7 3 4 1016.6 1016.7 0.4
24/06:00am 2.4 0.3 2.0 97 0.2 W 2 6 1 3 1016.5 1016.6 0.4
24/05:30am 2.2 -0.6 1.8 97 0.2 WNW 6 7 3 4 1016.6 1016.7 0.4
24/05:00am 1.8 0.0 1.4 97 0.2 CALM 0 0 0 0 1016.6 1016.7 0.2
24/04:30am 1.1 -1.9 0.5 96 0.2 NW 6 7 3 4 1016.5 1016.6 0.2
24/04:00am 1.2 -1.5 0.6 96 0.2 SW 4 6 2 3 1016.4 1016.5 0.2
24/03:30am 1.4 -1.6 0.8 96 0.2 SW 6 9 3 5 1016.5 1016.6 0.2
24/03:00am 0.7 -2.6 0.1 96 0.2 WNW 7 9 4 5 1016.6 1016.7 0.2
24/02:30am 1.1 -0.8 0.5 96 0.2 CALM 0 0 0 0 1016.9 1017.0 0.2
24/02:00am 1.8 -0.4 1.1 95 0.3 S 2 6 1 3 1017.3 1017.4 0.2
24/01:43am 2.0 0.2 1.3 95 0.3 CALM 0 0 0 0 1017.4 1017.5 0.2
24/01:30am 1.9 0.1 1.2 95 0.3 CALM 0 0 0 0 1017.5 1017.6 0.2
24/01:28am 1.8 0.0 1.1 95 0.3 CALM 0 0 0 0 1017.5 1017.6 0.2
24/01:09am 2.1 -0.4 1.4 95 0.3 W 4 6 2 3 1017.8 1017.9 0.2
24/01:00am 1.3 -1.7 0.6 95 0.3 W 6 7 3 4 1017.8 1017.9 0.2
24/12:41am 1.6 -0.3 0.7 94 0.3 CALM 0 0 0 0 1017.7 1017.8 0.2
24/12:30am 1.8 0.0 0.9 94 0.3 CALM 0 2 0 1 1017.7 1017.8 0.2
24/12:00am 2.8 0.7 1.9 94 0.4 SSE 2 7 1 4 1017.9 1018.0 0.2
 
Date/Time
EST
Temp
°C
App
Temp
°C
Dew
Point
°C
Rel
Hum
%
Delta-T
°C
Wind Press
QNH
hPa
Press
MSL
hPa
Rain since
9am
mm
Dir  Spd
km/h
Gust
km/h
Spd
kts
Gust
kts
23/11:30pm 3.3 1.7 2.4 94 0.4 CALM 0 0 0 0 1017.7 1017.8 0.2
23/11:00pm 3.7 1.4 2.8 94 0.4 N 4 6 2 3 1017.6 1017.7 0.2
23/10:30pm 4.3 2.1 3.3 93 0.4 SE 4 7 2 4 1017.6 1017.7 0.2
23/10:00pm 4.7 3.3 3.5 92 0.5 CALM 0 0 0 0 1017.7 1017.8 0.2
23/09:30pm 4.9 3.1 3.7 92 0.5 WSW 2 6 1 3 1017.8 1017.9 0.2
23/09:00pm 5.3 2.3 4.0 91 0.5 SW 9 11 5 6 1017.9 1018.0 0.2
23/08:30pm 5.7 3.1 4.2 90 0.6 WSW 7 11 4 6 1017.9 1018.0 0.2
23/08:00pm 6.0 2.6 4.2 88 0.8 WSW 11 13 6 7 1017.7 1017.8 0.2
23/07:30pm 7.2 4.0 4.9 85 1.0 WSW 11 13 6 7 1017.7 1017.8 0.2
23/07:00pm 7.8 4.2 4.9 82 1.3 SW 13 17 7 9 1017.5 1017.6 0.2
23/06:30pm 8.5 5.2 4.5 76 1.8 SW 11 13 6 7 1017.3 1017.4 0.2
23/06:00pm 10.0 6.4 5.0 71 2.3 SW 13 15 7 8 1017.1 1017.2 0.2
23/05:30pm 11.4 7.6 3.7 59 3.4 SW 13 17 7 9 1017.0 1017.1 0.2
23/05:00pm 11.4 8.7 5.7 68 2.6 W 9 11 5 6 1016.9 1017.0 0.2
23/04:30pm 11.2 7.7 5.3 67 2.7 WSW 13 13 7 7 1016.7 1016.8 0.2
23/04:00pm 11.7 9.2 6.4 70 2.5 WNW 9 11 5 6 1016.6 1016.7 0.2
23/03:30pm 12.1 8.8 4.8 61 3.3 WSW 11 15 6 8 1016.2 1016.3 0.2
23/03:00pm 12.7 8.9 3.9 55 4.0 SW 13 19 7 10 1016.0 1016.1 0.2
23/02:30pm 13.8 9.9 3.3 49 4.7 W 13 19 7 10 1015.9 1016.0 0.2
23/02:00pm 13.9 10.8 3.7 50 4.6 W 9 17 5 9 1016.0 1016.1 0.2
23/01:30pm 11.9 7.6 3.2 55 3.8 SW 15 19 8 10 1016.0 1016.1 0.2
23/01:00pm 11.6 7.7 3.6 58 3.5 SW 13 17 7 9 1016.2 1016.3 0.2
23/12:30pm 12.1 9.0 5.5 64 3.1 SW 11 17 6 9 1016.5 1016.6 0.2
23/12:00pm 12.8 8.9 7.3 69 2.7 W 17 24 9 13 1016.7 1016.8 0.0
23/11:30am 12.4 9.2 6.7 68 2.7 W 13 24 7 13 1017.1 1017.2 0.0
23/11:00am 11.6 9.0 6.3 70 2.5 W 9 13 5 7 1017.5 1017.6 0.0
23/10:30am 10.0 8.1 8.9 93 0.5 WNW 9 13 5 7 1017.8 1017.9 0.0
23/10:10am 9.3 7.3 8.8 97 0.2 SSW 9 13 5 7 1017.9 1018.0 0.0
23/10:00am 8.7 6.6 8.3 97 0.2 SSW 9 13 5 7 1017.9 1018.0 0.0
23/09:36am 8.3 6.5 7.9 97 0.2 WSW 7 9 4 5 1018.0 1018.1 0.0
23/09:30am 8.1 6.2 7.7 97 0.2 WSW 7 9 4 5 1018.0 1018.1 0.0
23/09:00am 6.7 4.5 6.3 97 0.2 W 7 9 4 5 1017.9 1018.0 4.4
23/08:30am 5.7 3.5 5.3 97 0.2 WSW 6 9 3 5 1017.7 1017.8 4.4
23/08:00am 4.9 2.5 4.5 97 0.2 SSW 6 7 3 4 1017.5 1017.6 4.4
23/07:30am 4.3 3.0 3.9 97 0.2 CALM 0 6 0 3 1017.3 1017.4 4.4
23/07:00am 4.4 1.8 4.0 97 0.2 SW 7 7 4 4 1016.8 1016.9 4.4
23/06:30am 5.1 2.6 4.7 97 0.2 SW 7 9 4 5 1016.6 1016.7 4.4
23/06:15am 5.5 2.7 5.1 97 0.2 SW 9 13 5 7 1016.4 1016.5 4.4
23/06:01am 5.7 3.3 5.3 97 0.2 SW 7 11 4 6 1016.4 1016.5 4.4
23/06:00am 5.7 3.5 5.3 97 0.2 SW 6 11 3 6 1016.4 1016.5 4.4
23/05:30am 5.6 4.5 5.2 97 0.2 CALM 0 0 0 0 1016.1 1016.2 4.4
23/05:00am 5.9 4.9 5.5 97 0.2 CALM 0 0 0 0 1015.9 1016.0 4.4
23/04:30am 5.9 4.5 5.5 97 0.2 SSW 2 6 1 3 1015.7 1015.8 4.4
23/04:00am 5.1 2.6 4.7 97 0.2 SW 7 9 4 5 1015.6 1015.7 4.4
23/03:59am 5.0 2.5 4.6 97 0.2 SW 7 9 4 5 1015.6 1015.7 4.4
23/03:30am 5.1 2.7 4.5 96 0.3 SW 6 7 3 4 1015.4 1015.4 4.4
23/03:25am 5.4 3.5 4.8 96 0.3 SW 4 6 2 3 1015.4 1015.4 4.4
23/03:00am 5.9 4.5 5.5 97 0.2 S 2 6 1 3 1015.4 1015.4 4.4
23/02:30am 6.0 4.2 5.6 97 0.2 S 4 7 2 4 1015.5 1015.6 4.4
23/02:00am 5.5 3.1 5.1 97 0.2 SW 7 9 4 5 1015.7 1015.8 4.4
23/01:59am 5.5 3.1 5.1 97 0.2 SW 7 9 4 5 1015.7 1015.8 4.4
23/01:30am 5.3 3.0 4.7 96 0.3 SW 6 9 3 5 1015.8 1015.9 4.4
23/01:00am 5.5 3.6 4.9 96 0.3 SW 4 6 2 3 1015.8 1015.9 4.4
23/12:57am 5.3 3.0 4.7 96 0.3 SW 6 7 3 4 1015.8 1015.9 4.4
23/12:39am 6.0 3.9 5.6 97 0.2 SW 6 9 3 5 1015.7 1015.8 4.4
23/12:30am 5.9 3.2 5.5 97 0.2 SW 9 11 5 6 1015.8 1015.9 4.4
23/12:00am 5.8 3.6 5.2 96 0.3 SW 6 7 3 4 1015.8 1015.9 4.4
 
Date/Time
EST
Temp
°C
App
Temp
°C
Dew
Point
°C
Rel
Hum
%
Delta-T
°C
Wind Press
QNH
hPa
Press
MSL
hPa
Rain since
9am
mm
Dir  Spd
km/h
Gust
km/h
Spd
kts
Gust
kts
22/11:56pm 6.0 3.8 5.4 96 0.3 SW 6 7 3 4 1015.8 1015.9 4.4
22/11:30pm 6.0 3.6 5.4 96 0.3 WSW 7 9 4 5 1015.7 1015.8 4.4
22/11:25pm 5.9 3.7 5.3 96 0.3 W 6 7 3 4 1015.7 1015.8 4.4
22/11:00pm 5.6 3.3 5.0 96 0.3 NW 6 9 3 5 1015.7 1015.8 4.4
22/10:50pm 6.1 4.3 5.5 96 0.3 NE 4 7 2 4 1015.7 1015.8 4.4
22/10:30pm 6.4 4.3 5.8 96 0.3 S 6 9 3 5 1015.5 1015.6 4.4
22/10:00pm 7.0 5.0 6.4 96 0.3 SSW 6 9 3 5 1015.7 1015.8 4.4
22/09:30pm 6.7 4.7 6.1 96 0.3 SW 6 7 3 4 1015.7 1015.8 4.4
22/09:23pm 6.5 4.4 5.9 96 0.3 W 6 6 3 3 1015.7 1015.8 4.4
22/09:00pm 6.2 4.4 5.5 95 0.3 NE 4 6 2 3 1015.7 1015.8 4.4
22/08:42pm 5.8 4.3 5.1 95 0.3 ENE 2 7 1 4 1015.4 1015.4 4.4
22/08:30pm 6.8 4.8 6.1 95 0.3 SSW 6 7 3 4 1015.4 1015.4 4.4
22/08:16pm 7.1 4.9 6.4 95 0.3 SW 7 7 4 4 1015.3 1015.3 4.4
22/08:00pm 6.6 4.9 5.9 95 0.3 WNW 4 7 2 4 1015.2 1015.2 4.4
22/07:41pm 6.5 4.2 5.6 94 0.4 WNW 7 9 4 5 1014.9 1014.9 4.4
22/07:30pm 7.0 4.4 6.1 94 0.4 WNW 9 11 5 6 1014.8 1014.8 4.4
22/07:00pm 7.6 5.6 6.4 92 0.5 NNW 6 9 3 5 1014.5 1014.5 4.4
22/06:30pm 8.8 6.9 7.4 91 0.7 S 7 9 4 5 1014.1 1014.1 4.4
22/06:00pm 8.8 6.5 7.3 90 0.7 SW 9 11 5 6 1014.0 1014.0 4.2
22/05:57pm 8.8 6.5 7.3 90 0.7 WSW 9 11 5 6 1014.0 1014.0 4.0
22/05:37pm 8.7 3.8 7.0 89 0.8 WNW 22 32 12 17 1014.0 1014.0 3.2
22/05:30pm 9.0 3.3 6.6 85 1.1 NW 26 35 14 19 1013.6 1013.6 2.2
22/05:00pm 10.1 4.4 6.6 79 1.6 WNW 26 37 14 20 1013.1 1013.2 0.2
22/04:57pm 10.6 5.6 6.6 76 1.9 NW 22 37 12 20 1013.1 1013.2 0.0
22/04:30pm 12.0 10.7 6.1 67 2.8 N 2 7 1 4 1012.3 1012.4 0.0
22/04:00pm 13.7 12.4 7.7 67 3.0 SSW 4 9 2 5 1012.2 1012.3 0.0
22/03:30pm 12.4 10.8 8.1 75 2.1 NNW 6 9 3 5 1012.2 1012.3 0.0
22/03:00pm 12.0 9.4 7.9 76 2.0 NNW 11 13 6 7 1012.2 1012.3 0.0
22/02:30pm 11.7 8.2 7.2 74 2.2 N 15 26 8 14 1012.4 1012.5 0.0
22/02:00pm 12.8 11.2 7.9 72 2.4 N 6 11 3 6 1012.5 1012.6 0.0
22/01:30pm 13.7 11.9 8.1 69 2.8 ENE 7 11 4 6 1012.7 1012.8 0.0
22/01:00pm 12.2 10.1 8.1 76 2.0 SSW 9 13 5 7 1013.0 1013.1 0.0
22/12:30pm 13.3 10.6 7.3 67 2.9 SSW 11 17 6 9 1013.5 1013.5 0.0
22/12:00pm 13.2 11.2 8.5 73 2.4 SSW 9 11 5 6 1013.7 1013.7 0.0
22/11:30am 12.6 11.1 8.3 75 2.1 SSW 6 11 3 6 1014.3 1014.3 0.0
22/11:00am 12.4 11.3 8.3 76 2.0 SE 4 7 2 4 1014.5 1014.5 0.0
22/10:30am 11.3 9.6 7.6 78 1.8 WNW 6 7 3 4 1014.6 1014.6 0.0
22/10:00am 10.6 9.9 7.1 79 1.7 CALM 0 6 0 3 1014.8 1014.8 0.0
22/09:30am 10.4 9.8 7.3 81 1.5 CALM 0 0 0 0 1014.8 1014.8 0.0
22/09:00am 9.6 7.8 7.2 85 1.1 SE 6 7 3 4 1014.8 1014.8 2.8
22/08:30am 8.5 6.7 7.0 90 0.7 SE 6 7 3 4 1014.6 1014.6 2.8
22/08:00am 8.0 7.3 6.8 92 0.6 CALM 0 0 0 0 1014.5 1014.5 2.8
22/07:30am 7.7 5.6 6.5 92 0.6 SSE 7 9 4 5 1014.3 1014.3 2.8
22/07:00am 7.6 5.4 6.4 92 0.5 SE 7 9 4 5 1014.2 1014.2 2.6
22/06:30am 8.1 6.9 6.6 90 0.7 W 2 6 1 3 1014.0 1014.0 2.6
22/06:00am 8.4 5.6 6.9 90 0.7 NW 11 13 6 7 1013.8 1013.8 2.6
22/05:30am 8.5 5.0 7.0 90 0.7 NW 15 19 8 10 1013.7 1013.7 2.6
22/05:00am 8.1 5.0 7.3 95 0.4 NNW 13 15 7 8 1013.5 1013.5 2.6
22/04:34am 7.1 5.0 6.5 96 0.3 NW 7 9 4 5 1013.7 1013.7 2.6
22/04:30am 6.9 4.7 6.3 96 0.3 WNW 7 9 4 5 1013.8 1013.8 2.6
22/04:15am 6.7 4.7 6.1 96 0.3 NNW 6 7 3 4 1013.7 1013.7 2.6
22/04:00am 7.4 5.5 6.8 96 0.3 NW 6 7 3 4 1013.5 1013.5 2.6
22/03:30am 7.7 7.0 7.1 96 0.3 CALM 0 0 0 0 1013.5 1013.5 2.6
22/03:00am 7.7 7.0 7.1 96 0.3 CALM 0 0 0 0 1013.7 1013.7 2.6
22/02:30am 7.4 6.7 6.8 96 0.3 CALM 0 0 0 0 1013.9 1013.9 2.6
22/02:00am 7.6 6.9 7.0 96 0.3 CALM 0 0 0 0 1014.0 1014.0 2.6
22/01:30am 7.9 6.8 7.1 95 0.4 SSW 2 6 1 3 1014.1 1014.1 2.6
22/01:14am 7.8 7.1 7.1 95 0.3 CALM 0 0 0 0 1014.1 1014.1 2.6
22/01:00am 7.7 7.0 7.0 95 0.3 CALM 0 0 0 0 1014.1 1014.1 2.6
22/12:30am 8.2 7.2 7.4 95 0.4 NNE 2 6 1 3 1013.9 1013.9 2.6
22/12:16am 8.2 6.3 7.4 95 0.4 NE 7 7 4 4 1014.0 1014.0 2.6
22/12:00am 8.7 8.2 7.9 95 0.4 CALM 0 0 0 0 1014.1 1014.1 2.6
 
Date/Time
EST
Temp
°C
App
Temp
°C
Dew
Point
°C
Rel
Hum
%
Delta-T
°C
Wind Press
QNH
hPa
Press
MSL
hPa
Rain since
9am
mm
Dir  Spd
km/h
Gust
km/h
Spd
kts
Gust
kts
21/11:30pm 8.8 7.2 8.0 95 0.4 W 6 7 3 4 1014.3 1014.3 2.6
21/11:00pm 8.9 8.4 8.0 94 0.4 CALM 0 0 0 0 1014.3 1014.3 2.6
21/10:41pm 8.9 8.4 8.0 94 0.4 CALM 0 0 0 0 1014.3 1014.3 2.6
21/10:30pm 8.9 8.4 8.0 94 0.4 CALM 0 0 0 0 1014.3 1014.3 2.6
21/10:21pm 9.0 8.6 8.1 94 0.4 CALM 0 0 0 0 1014.3 1014.3 2.6
21/10:00pm 9.0 7.8 8.1 94 0.4 WNW 4 7 2 4 1014.4 1014.4 2.6
21/09:30pm 9.3 7.2 8.2 93 0.5 WNW 9 13 5 7 1014.5 1014.5 2.6
21/09:00pm 9.4 6.9 8.2 92 0.6 WNW 11 15 6 8 1014.4 1014.4 2.6
21/08:30pm 9.7 6.0 8.0 89 0.8 WNW 17 22 9 12 1014.4 1014.4 2.2
21/08:00pm 10.1 5.9 8.2 88 0.9 WSW 20 22 11 12 1014.2 1014.2 1.2
21/07:30pm 11.3 8.1 6.8 74 2.1 W 13 17 7 9 1013.6 1013.6 0.2
21/07:00pm 12.2 7.6 5.8 65 3.0 NW 19 24 10 13 1013.1 1013.2 0.0
21/06:30pm 11.5 7.9 6.6 72 2.3 WNW 15 20 8 11 1013.0 1013.1 0.0
21/06:00pm 12.6 8.1 6.0 64 3.1 WNW 19 26 10 14 1012.7 1012.8 0.0
21/05:30pm 12.1 8.7 7.8 75 2.1 W 15 20 8 11 1012.6 1012.7 0.0
21/05:00pm 12.2 9.2 7.9 75 2.1 W 13 17 7 9 1012.6 1012.7 0.0
21/04:30pm 12.3 9.6 8.8 79 1.8 W 13 17 7 9 1012.5 1012.6 0.0
21/04:00pm 12.7 8.7 8.4 75 2.1 W 19 22 10 12 1012.5 1012.6 0.0
21/03:30pm 13.6 9.3 7.8 68 2.9 W 20 28 11 15 1012.5 1012.6 0.0
21/03:00pm 12.8 7.8 8.1 73 2.3 W 24 30 13 16 1012.7 1012.8 0.0
21/02:30pm 13.4 8.3 7.6 68 2.9 W 24 32 13 17 1012.7 1012.8 0.0
21/02:00pm 14.5 9.4 7.5 63 3.5 W 24 33 13 18 1012.7 1012.8 0.0
21/01:30pm 14.9 9.0 7.7 62 3.6 W 28 35 15 19 1012.8 1012.9 0.0
21/01:00pm 13.3 7.7 7.1 66 3.0 W 26 39 14 21 1013.0 1013.1 0.0
21/12:30pm 14.4 8.4 7.0 61 3.6 WNW 28 37 15 20 1013.3 1013.3 0.0
21/12:00pm 14.2 8.3 7.3 63 3.4 WNW 28 39 15 21 1013.6 1013.6 0.0
21/11:30am 14.0 9.0 8.2 68 2.9 W 24 35 13 19 1014.0 1014.0 0.0
21/11:00am 13.0 8.6 7.5 69 2.7 WNW 20 33 11 18 1014.4 1014.4 0.0
21/10:30am 12.3 6.8 7.4 72 2.4 W 26 39 14 21 1014.5 1014.5 0.0
21/10:00am 12.2 6.2 7.1 71 2.5 W 28 39 15 21 1014.5 1014.5 0.0
21/09:30am 12.4 7.3 7.5 72 2.4 W 24 32 13 17 1014.5 1014.5 0.0
21/09:00am 12.1 8.1 8.2 77 1.9 W 19 26 10 14 1014.4 1014.4 1.4
21/08:30am 11.3 6.6 7.8 79 1.7 W 22 28 12 15 1014.2 1014.2 1.4
21/08:00am 11.1 5.2 7.4 78 1.8 W 28 37 15 20 1014.1 1014.1 1.4
21/07:30am 11.1 3.8 7.2 77 1.9 W 35 50 19 27 1013.6 1013.6 1.4

Other Formats:

Comma delimited format used in spreadsheet applications
http://www.bom.gov.au/fwo/IDV60801/IDV60801.94891.axf

JavaScript Object Notation format (JSON) in row-major order
http://www.bom.gov.au/fwo/IDV60801/IDV60801.94891.json